createdAt,value
2018-02-15T00:00:25.153Z,41.37
2018-02-15T00:02:51.310Z,36.00
2018-02-15T00:05:17.532Z,29.87
2018-02-15T00:07:43.698Z,26.60
2018-02-15T00:10:09.897Z,31.33
2018-02-15T00:12:36.097Z,43.57
2018-02-15T00:15:02.257Z,29.37
2018-02-15T00:17:28.469Z,30.27
2018-02-15T00:19:54.630Z,25.57
2018-02-15T00:22:20.838Z,46.43
2018-02-15T00:24:47.064Z,40.63
2018-02-15T00:27:13.232Z,31.73
2018-02-15T00:29:39.494Z,29.83
2018-02-15T00:32:05.675Z,28.20
2018-02-15T00:34:31.808Z,30.23
2018-02-15T00:36:57.929Z,31.90
2018-02-15T00:39:24.165Z,28.87
2018-02-15T00:41:50.392Z,32.60
2018-02-15T00:44:16.525Z,24.97
2018-02-15T00:46:42.682Z,27.30
2018-02-15T00:49:08.945Z,57.70
2018-02-15T00:51:35.183Z,33.27
2018-02-15T00:54:01.329Z,27.43
2018-02-15T00:56:27.490Z,30.57
2018-02-15T00:58:53.745Z,36.67
2018-02-15T01:01:19.984Z,24.50
2018-02-15T01:03:46.112Z,37.13
2018-02-15T01:06:12.337Z,45.90
2018-02-15T01:08:38.471Z,31.40
2018-02-15T01:11:04.681Z,38.97
2018-02-15T01:13:30.854Z,32.93
2018-02-15T01:15:56.977Z,32.03
2018-02-15T01:18:23.127Z,25.00
2018-02-15T01:20:49.329Z,37.30
2018-02-15T01:23:15.477Z,28.83
2018-02-15T01:25:41.616Z,49.40
2018-02-15T01:28:07.762Z,41.60
2018-02-15T01:30:33.977Z,40.57
2018-02-15T01:33:00.150Z,23.90
2018-02-15T01:35:26.347Z,37.63
2018-02-15T01:37:52.494Z,25.70
2018-02-15T01:40:18.667Z,32.20
2018-02-15T01:42:51.704Z,32.23
2018-02-15T01:45:17.832Z,25.77
2018-02-15T01:47:44.021Z,23.93
2018-02-15T01:50:10.194Z,37.83
2018-02-15T01:52:36.399Z,26.67
2018-02-15T01:55:02.581Z,36.47
2018-02-15T01:57:28.795Z,29.67
2018-02-15T01:59:54.976Z,21.97
2018-02-15T02:02:21.179Z,57.43
2018-02-15T02:04:47.340Z,26.10
2018-02-15T02:10:16.258Z,23.97
2018-02-15T02:12:42.434Z,50.17
2018-02-15T02:15:08.568Z,20.80
2018-02-15T02:17:34.700Z,22.17
2018-02-15T02:20:00.884Z,21.90
2018-02-15T02:22:27.058Z,18.77
2018-02-15T02:24:53.260Z,20.90
2018-02-15T02:27:19.642Z,22.80
2018-02-15T02:29:45.845Z,19.23
2018-02-15T02:32:12.061Z,28.87
2018-02-15T02:34:38.196Z,26.43
2018-02-15T02:37:04.321Z,20.23
2018-02-15T02:39:30.471Z,20.87
2018-02-15T02:41:56.708Z,21.07
2018-02-15T02:44:22.840Z,22.23
2018-02-15T02:46:49.018Z,25.00
2018-02-15T02:49:15.194Z,61.23
2018-02-15T02:51:41.404Z,19.33
2018-02-15T02:54:07.554Z,26.50
2018-02-15T02:56:33.704Z,26.73
2018-02-15T02:58:59.853Z,20.83
2018-02-15T03:01:32.985Z,27.17
2018-02-15T03:03:59.235Z,24.83
2018-02-15T03:06:25.403Z,22.53
2018-02-15T03:08:51.571Z,24.60
2018-02-15T03:11:17.849Z,23.33
2018-02-15T03:13:44.095Z,21.70
2018-02-15T03:16:10.230Z,31.37
2018-02-15T03:18:36.373Z,19.80
2018-02-15T03:21:02.546Z,15.67
2018-02-15T03:23:28.765Z,25.43
2018-02-15T03:25:54.920Z,71.27
2018-02-15T03:28:21.143Z,32.87
2018-02-15T03:30:47.276Z,22.77
2018-02-15T03:33:13.484Z,22.90
2018-02-15T03:35:39.666Z,21.40
2018-02-15T03:38:05.793Z,20.97
2018-02-15T03:40:31.911Z,29.70
2018-02-15T03:42:58.102Z,24.03
2018-02-15T03:45:43.929Z,91.27
2018-02-15T03:48:10.119Z,19.17
2018-02-15T03:50:36.307Z,74.67
2018-02-15T03:53:02.497Z,41.87
2018-02-15T03:55:28.683Z,32.90
2018-02-15T03:57:54.826Z,22.97
2018-02-15T04:03:29.640Z,87.53
2018-02-15T04:05:56.007Z,16.20
2018-02-15T04:08:22.199Z,23.10
2018-02-15T04:13:48.438Z,119.33
2018-02-15T04:16:14.619Z,30.97
2018-02-15T04:18:44.287Z,55.50
2018-02-15T04:21:10.455Z,113.77
2018-02-15T04:23:36.660Z,24.90
2018-02-15T04:26:02.859Z,25.03
2018-02-15T04:28:29.002Z,48.03
2018-02-15T04:30:55.128Z,21.63
2018-02-15T04:33:21.308Z,19.37
2018-02-15T04:35:47.437Z,23.83
2018-02-15T04:38:13.597Z,20.63
2018-02-15T04:40:39.782Z,43.90
2018-02-15T04:43:05.998Z,24.80
2018-02-15T04:45:32.163Z,30.30
2018-02-15T04:47:58.305Z,27.23
2018-02-15T04:50:24.576Z,38.47
2018-02-15T04:52:50.782Z,24.53
2018-02-15T04:57:48.697Z,26.13
2018-02-15T05:00:14.889Z,25.60
2018-02-15T05:02:41.131Z,39.50
2018-02-15T05:05:07.339Z,61.20
2018-02-15T05:07:33.535Z,29.03
2018-02-15T05:09:59.700Z,22.07
2018-02-15T05:12:25.923Z,32.83
2018-02-15T05:14:52.076Z,26.00
2018-02-15T05:17:18.305Z,20.70
2018-02-15T05:19:44.478Z,22.37
2018-02-15T05:22:10.683Z,20.60
2018-02-15T05:24:36.910Z,21.03
2018-02-15T05:27:03.093Z,19.60
2018-02-15T05:29:29.513Z,27.43
2018-02-15T05:31:55.754Z,21.33
2018-02-15T05:34:21.960Z,25.93
2018-02-15T05:36:48.148Z,23.80
2018-02-15T05:39:14.331Z,24.13
2018-02-15T05:41:40.480Z,49.93
2018-02-15T05:44:06.663Z,27.57
2018-02-15T05:46:32.877Z,26.73
2018-02-15T05:48:59.045Z,30.97
2018-02-15T05:51:25.242Z,20.80
2018-02-15T05:53:51.444Z,23.90
2018-02-15T05:56:17.558Z,37.63
2018-02-15T05:58:43.729Z,24.30
2018-02-15T06:01:09.920Z,24.63
2018-02-15T06:03:36.125Z,35.13
2018-02-15T06:06:02.273Z,22.37
2018-02-15T06:08:28.411Z,28.63
2018-02-15T06:10:54.588Z,30.90
2018-02-15T06:13:20.756Z,29.57
2018-02-15T06:15:46.901Z,24.87
2018-02-15T06:18:13.093Z,55.60
2018-02-15T06:20:39.252Z,45.33
2018-02-15T06:23:05.460Z,33.80
2018-02-15T06:25:31.610Z,23.53
2018-02-15T06:27:57.838Z,27.93
2018-02-15T06:30:24.042Z,32.57
2018-02-15T06:32:50.262Z,29.83
2018-02-15T06:35:16.486Z,35.27
2018-02-15T06:37:42.604Z,38.80
2018-02-15T06:40:08.803Z,34.23
2018-02-15T06:42:35.037Z,46.47
2018-02-15T06:45:01.273Z,39.23
2018-02-15T06:47:27.419Z,34.90
2018-02-15T06:49:53.547Z,39.43
2018-02-15T06:52:19.803Z,34.23
2018-02-15T06:54:46.008Z,69.10
2018-02-15T06:57:12.158Z,44.30
2018-02-15T06:59:38.607Z,43.07
2018-02-15T07:02:04.847Z,36.27
2018-02-15T07:04:31.062Z,38.47
2018-02-15T07:06:57.240Z,47.67
2018-02-15T07:09:23.477Z,50.83
2018-02-15T07:11:49.714Z,45.00
2018-02-15T07:14:15.927Z,52.80
2018-02-15T07:16:42.120Z,57.70
2018-02-15T07:19:08.324Z,51.80
2018-02-15T07:21:34.493Z,50.87
2018-02-15T07:24:00.686Z,47.30
2018-02-15T07:26:26.890Z,45.03
2018-02-15T07:28:53.095Z,79.13
2018-02-15T07:31:19.341Z,133.37
2018-02-15T07:33:45.490Z,86.77
2018-02-15T07:36:11.644Z,66.50
2018-02-15T07:38:37.749Z,72.63
2018-02-15T07:41:03.916Z,75.97
2018-02-15T07:43:30.068Z,71.97
2018-02-15T07:45:56.158Z,76.57
2018-02-15T07:48:22.338Z,82.20
2018-02-15T07:50:48.538Z,91.87
2018-02-15T07:53:14.726Z,85.63
2018-02-15T07:55:40.894Z,82.83
2018-02-15T07:58:07.354Z,134.17
2018-02-15T08:00:33.584Z,130.30
2018-02-15T08:02:59.758Z,109.97
2018-02-15T08:05:26.265Z,100.93
2018-02-15T08:07:52.392Z,169.77
2018-02-15T08:10:18.528Z,104.40
2018-02-15T08:12:44.664Z,90.93
2018-02-15T08:15:10.788Z,81.23
2018-02-15T08:17:36.924Z,78.87
2018-02-15T08:20:03.102Z,77.53
2018-02-15T08:22:29.220Z,81.20
2018-02-15T08:24:55.406Z,92.40
2018-02-15T08:27:21.492Z,81.97
2018-02-15T08:29:47.595Z,66.83
2018-02-15T08:32:13.785Z,74.13
2018-02-15T08:34:39.964Z,80.13
2018-02-15T08:37:06.093Z,75.67
2018-02-15T08:39:32.255Z,77.73
2018-02-15T08:41:58.437Z,72.30
2018-02-15T08:44:24.614Z,152.97
2018-02-15T08:46:50.713Z,75.80
2018-02-15T08:49:16.842Z,70.03
2018-02-15T08:51:43.019Z,97.73
2018-02-15T08:54:09.174Z,70.57
2018-02-15T08:56:35.310Z,63.67
2018-02-15T08:59:01.406Z,67.27
2018-02-15T09:01:27.505Z,73.33
2018-02-15T09:03:53.667Z,80.43
2018-02-15T09:06:19.843Z,87.87
2018-02-15T09:08:45.947Z,96.07
2018-02-15T09:11:12.118Z,89.73
2018-02-15T09:13:38.259Z,87.57
2018-02-15T09:16:04.411Z,87.83
2018-02-15T09:18:30.557Z,98.90
2018-02-15T09:20:56.697Z,172.07
2018-02-15T09:23:22.866Z,72.00
2018-02-15T09:25:48.988Z,65.67
2018-02-15T09:28:15.156Z,62.53
2018-02-15T09:30:41.264Z,84.07
2018-02-15T09:33:07.442Z,81.33
2018-02-15T09:35:33.532Z,77.03
2018-02-15T09:37:59.646Z,86.93
2018-02-15T09:40:25.791Z,89.57
2018-02-15T09:42:51.945Z,69.97
2018-02-15T09:45:18.095Z,69.80
2018-02-15T09:47:44.352Z,75.70
2018-02-15T09:50:10.603Z,69.63
2018-02-15T09:52:36.843Z,65.73
2018-02-15T09:58:11.844Z,63.77
2018-02-15T10:00:38.018Z,81.53
2018-02-15T10:03:04.225Z,66.57
2018-02-15T10:05:30.452Z,70.97
2018-02-15T10:07:56.623Z,141.13
2018-02-15T10:10:22.765Z,67.80
2018-02-15T10:12:48.962Z,81.77
2018-02-15T10:15:15.151Z,89.93
2018-02-15T10:17:41.264Z,70.10
2018-02-15T10:20:07.409Z,73.80
2018-02-15T10:22:33.528Z,82.40
2018-02-15T10:24:59.709Z,72.27
2018-02-15T10:27:25.838Z,69.07
2018-02-15T10:29:52.095Z,62.47
2018-02-15T10:32:18.618Z,50.73
2018-02-15T10:34:44.824Z,65.03
2018-02-15T10:37:10.981Z,64.80
2018-02-15T10:39:37.192Z,54.67
2018-02-15T10:42:03.393Z,45.57
2018-02-15T10:44:29.715Z,122.47
2018-02-15T10:46:55.857Z,49.27
2018-02-15T10:49:21.992Z,54.60
2018-02-15T10:51:48.177Z,54.37
2018-02-15T10:54:14.401Z,52.20
2018-02-15T10:56:40.552Z,53.47
2018-02-15T10:59:06.815Z,54.23
2018-02-15T11:01:38.927Z,53.17
2018-02-15T11:07:10.883Z,64.93
2018-02-15T11:09:43.942Z,49.67
2018-02-15T11:12:10.164Z,80.60
2018-02-15T11:14:36.372Z,74.43
2018-02-15T11:17:02.548Z,95.53
2018-02-15T11:19:28.785Z,60.10
2018-02-15T11:21:54.948Z,57.63
2018-02-15T11:24:21.183Z,68.80
2018-02-15T11:26:47.385Z,87.77
2018-02-15T11:29:13.925Z,72.83
2018-02-15T11:31:40.299Z,76.73
2018-02-15T11:34:07.209Z,71.83
2018-02-15T11:36:33.566Z,136.10
2018-02-15T11:38:59.743Z,58.10
2018-02-15T11:41:26.113Z,67.87
2018-02-15T11:43:52.324Z,70.60
2018-02-15T11:46:19.567Z,77.73
2018-02-15T11:48:45.896Z,56.37
2018-02-15T11:51:12.140Z,57.17
2018-02-15T11:53:39.611Z,53.10
2018-02-15T11:56:05.884Z,52.43
2018-02-15T11:58:32.077Z,44.93
2018-02-15T12:00:58.245Z,42.53
2018-02-15T12:03:24.457Z,60.33
2018-02-15T12:05:50.732Z,37.27
2018-02-15T12:08:16.888Z,51.80
2018-02-15T12:10:43.194Z,42.97
2018-02-15T12:13:09.487Z,88.97
2018-02-15T12:15:35.729Z,56.27
2018-02-15T12:18:01.916Z,53.23
2018-02-15T12:20:28.202Z,66.47
2018-02-15T12:22:54.908Z,55.27
2018-02-15T12:25:21.288Z,41.47
2018-02-15T12:27:47.620Z,47.87
2018-02-15T12:30:13.804Z,44.53
2018-02-15T12:32:40.243Z,51.67
2018-02-15T12:35:06.604Z,50.70
2018-02-15T12:37:32.765Z,50.93
2018-02-15T12:39:59.153Z,62.63
2018-02-15T12:42:25.371Z,42.23
2018-02-15T12:44:51.589Z,27.13
2018-02-15T12:47:17.894Z,33.60
2018-02-15T12:49:44.081Z,83.67
2018-02-15T12:52:10.340Z,28.30
2018-02-15T12:54:36.542Z,34.07
2018-02-15T12:57:02.863Z,40.20
2018-02-15T12:59:29.284Z,33.57
2018-02-15T13:01:55.656Z,54.37
2018-02-15T13:04:21.942Z,38.77
2018-02-15T13:06:48.334Z,39.40
2018-02-15T13:09:14.579Z,39.73
2018-02-15T13:11:40.829Z,48.63
2018-02-15T13:14:07.339Z,42.30
2018-02-15T13:16:46.793Z,35.40
2018-02-15T13:19:25.393Z,57.13
2018-02-15T13:21:51.622Z,39.17
2018-02-15T13:24:18.411Z,40.93
2018-02-15T13:26:44.682Z,31.73
2018-02-15T13:29:11.147Z,39.87
2018-02-15T13:31:37.705Z,78.17
2018-02-15T13:34:04.735Z,39.17
2018-02-15T13:36:31.237Z,54.73
2018-02-15T13:38:57.577Z,40.00
2018-02-15T13:41:23.878Z,41.43
2018-02-15T13:43:50.047Z,31.43
2018-02-15T13:46:16.424Z,39.60
2018-02-15T13:48:42.664Z,77.23
2018-02-15T13:51:09.168Z,37.70
2018-02-15T13:53:35.564Z,36.20
2018-02-15T13:56:01.807Z,46.97
2018-02-15T13:58:28.229Z,66.20
2018-02-15T14:00:54.656Z,41.43
2018-02-15T14:03:20.955Z,48.40
2018-02-15T14:05:47.370Z,54.67
2018-02-15T14:08:13.785Z,46.33
2018-02-15T14:10:40.080Z,43.57
2018-02-15T14:13:06.305Z,53.23
2018-02-15T14:15:32.624Z,25.43
2018-02-15T14:17:58.816Z,36.80
2018-02-15T14:20:24.992Z,29.77
2018-02-15T14:22:51.180Z,30.63
2018-02-15T14:25:17.396Z,19.00
2018-02-15T14:27:43.590Z,17.27
2018-02-15T14:30:09.785Z,28.87
2018-02-15T14:32:36.177Z,38.03
2018-02-15T14:35:02.610Z,58.30
2018-02-15T14:37:28.877Z,27.43
2018-02-15T14:39:55.284Z,64.53
2018-02-15T14:42:21.824Z,29.60
2018-02-15T14:44:48.973Z,44.33
2018-02-15T14:47:15.206Z,61.70
2018-02-15T14:49:42.702Z,112.97
2018-02-15T14:52:09.350Z,94.37
2018-02-15T14:54:35.895Z,93.07
2018-02-15T14:57:02.271Z,34.47
2018-02-15T14:59:29.468Z,96.50
2018-02-15T15:01:55.815Z,29.57
2018-02-15T15:04:22.026Z,37.83
2018-02-15T15:06:48.327Z,28.97
2018-02-15T15:09:14.569Z,32.73
2018-02-15T15:11:41.899Z,31.50
2018-02-15T15:14:08.641Z,34.43
2018-02-15T15:16:34.937Z,31.03
2018-02-15T15:19:03.304Z,37.93
2018-02-15T15:21:29.475Z,30.10
2018-02-15T15:23:56.958Z,46.13
2018-02-15T15:26:23.622Z,92.10
2018-02-15T15:28:49.924Z,30.43
2018-02-15T15:31:16.105Z,27.73
2018-02-15T15:33:42.312Z,23.73
2018-02-15T15:36:08.585Z,24.40
2018-02-15T15:38:34.758Z,28.57
2018-02-15T15:41:00.961Z,18.57
2018-02-15T15:43:27.307Z,27.77
2018-02-15T15:45:53.501Z,32.50
2018-02-15T15:48:19.796Z,54.80
2018-02-15T15:50:46.066Z,34.97
2018-02-15T15:53:12.262Z,22.77
2018-02-15T15:55:38.476Z,31.03
2018-02-15T15:58:04.682Z,34.13
2018-02-15T16:00:30.844Z,20.83
2018-02-15T16:05:29.976Z,17.37
2018-02-15T16:07:56.220Z,17.67
2018-02-15T16:10:22.420Z,29.13
2018-02-15T16:12:48.762Z,28.30
2018-02-15T16:15:14.971Z,37.10
2018-02-15T16:17:41.187Z,22.70
2018-02-15T16:20:07.430Z,22.33
2018-02-15T16:22:34.102Z,20.43
2018-02-15T16:25:00.365Z,16.30
2018-02-15T16:27:26.593Z,22.63
2018-02-15T16:29:52.839Z,19.17
2018-02-15T16:32:19.055Z,21.60
2018-02-15T16:34:45.221Z,19.03
2018-02-15T16:37:11.476Z,26.43
2018-02-15T16:39:37.721Z,58.47
2018-02-15T16:42:04.029Z,24.97
2018-02-15T16:44:30.260Z,19.53
2018-02-15T16:46:56.491Z,21.13
2018-02-15T16:49:22.722Z,14.50
2018-02-15T16:51:48.976Z,19.57
2018-02-15T16:54:15.182Z,19.23
2018-02-15T16:56:41.397Z,25.17
2018-02-15T16:59:07.672Z,24.13
2018-02-15T17:01:33.859Z,16.60
2018-02-15T17:04:00.056Z,16.63
2018-02-15T17:06:26.329Z,42.73
2018-02-15T17:08:52.581Z,19.13
2018-02-15T17:11:18.851Z,24.80
2018-02-15T17:13:45.016Z,19.50
2018-02-15T17:16:11.258Z,36.50
2018-02-15T17:18:37.508Z,24.53
2018-02-15T17:21:03.671Z,31.37
2018-02-15T17:23:29.880Z,17.83
2018-02-15T17:25:56.228Z,14.77
2018-02-15T17:28:22.451Z,19.37
2018-02-15T17:30:48.671Z,23.23
2018-02-15T17:33:14.866Z,24.00
2018-02-15T17:35:41.187Z,26.83
2018-02-15T17:38:07.387Z,14.37
2018-02-15T17:40:33.583Z,13.07
2018-02-15T17:42:59.807Z,18.27
2018-02-15T17:45:25.957Z,21.17
2018-02-15T17:47:52.228Z,21.40
2018-02-15T17:50:18.445Z,22.37
2018-02-15T17:52:44.660Z,22.67
2018-02-15T17:55:10.875Z,19.30
2018-02-15T17:57:37.184Z,44.30
2018-02-15T18:00:04.383Z,20.27
2018-02-15T18:02:30.546Z,20.50
2018-02-15T18:04:56.745Z,14.40
2018-02-15T18:07:22.993Z,26.80
2018-02-15T18:09:49.157Z,11.87
2018-02-15T18:12:15.563Z,21.33
2018-02-15T18:14:41.734Z,37.10
2018-02-15T18:17:07.953Z,30.43
2018-02-15T18:19:34.180Z,28.50
2018-02-15T18:22:00.445Z,29.77
2018-02-15T18:24:26.816Z,33.97
2018-02-15T18:26:53.631Z,36.30
2018-02-15T18:29:24.100Z,50.43
2018-02-15T18:31:50.289Z,29.93
2018-02-15T18:34:16.561Z,77.17
2018-02-15T18:36:44.235Z,40.93
2018-02-15T18:39:10.440Z,41.23
2018-02-15T18:41:36.673Z,40.57
2018-02-15T18:44:04.021Z,56.97
2018-02-15T18:46:30.381Z,18.13
2018-02-15T18:48:56.673Z,36.67
2018-02-15T18:51:22.924Z,16.80
2018-02-15T18:53:49.127Z,30.03
2018-02-15T18:56:15.348Z,17.80
2018-02-15T18:58:41.536Z,15.00
2018-02-15T19:01:07.805Z,34.27
2018-02-15T19:03:33.987Z,12.50
2018-02-15T19:06:00.188Z,18.57
2018-02-15T19:08:26.377Z,27.67
2018-02-15T19:10:52.556Z,55.83
2018-02-15T19:13:18.768Z,17.27
2018-02-15T19:15:45.005Z,22.93
2018-02-15T19:18:11.202Z,33.37
2018-02-15T19:20:37.418Z,18.53
2018-02-15T19:23:03.592Z,22.53
2018-02-15T19:25:29.840Z,16.00
2018-02-15T19:27:56.067Z,17.23
2018-02-15T19:30:22.293Z,26.73
2018-02-15T19:32:48.489Z,21.37
2018-02-15T19:35:14.663Z,30.50
2018-02-15T19:37:40.877Z,22.00
2018-02-15T19:40:07.094Z,21.30
2018-02-15T19:42:33.346Z,18.03
2018-02-15T19:44:59.505Z,15.07
2018-02-15T19:47:26.149Z,58.63
2018-02-15T19:49:52.355Z,19.20
2018-02-15T19:52:18.601Z,19.63
2018-02-15T19:54:44.824Z,19.33
2018-02-15T19:57:11.148Z,32.53
2018-02-15T19:59:37.374Z,24.03
2018-02-15T20:02:03.554Z,29.67
2018-02-15T20:04:29.733Z,29.80
2018-02-15T20:06:55.964Z,20.70
2018-02-15T20:09:22.216Z,20.33
2018-02-15T20:11:48.426Z,29.90
2018-02-15T20:14:14.615Z,22.33
2018-02-15T20:16:40.840Z,18.00
2018-02-15T20:19:06.975Z,19.70
2018-02-15T20:21:33.128Z,20.03
2018-02-15T20:23:59.339Z,80.23
2018-02-15T20:26:31.465Z,19.47
2018-02-15T20:28:57.704Z,25.77
2018-02-15T20:31:23.938Z,17.80
2018-02-15T20:33:50.139Z,18.47
2018-02-15T20:36:16.284Z,18.83
2018-02-15T20:38:48.647Z,20.73
2018-02-15T20:41:14.884Z,31.40
2018-02-15T20:43:41.094Z,23.50
2018-02-15T20:46:07.279Z,17.40
2018-02-15T20:48:33.609Z,35.17
2018-02-15T20:51:05.736Z,29.77
2018-02-15T20:53:38.051Z,27.20
2018-02-15T20:56:04.265Z,37.87
2018-02-15T20:58:30.499Z,30.80
2018-02-15T21:00:56.654Z,20.13
2018-02-15T21:03:22.815Z,27.87
2018-02-15T21:05:49.029Z,56.10
2018-02-15T21:08:15.233Z,23.47
2018-02-15T21:10:41.418Z,17.13
2018-02-15T21:13:07.624Z,22.27
2018-02-15T21:15:33.780Z,22.67
2018-02-15T21:17:59.996Z,26.27
2018-02-15T21:20:26.194Z,20.33
2018-02-15T21:22:52.353Z,15.47
2018-02-15T21:25:18.515Z,22.93
2018-02-15T21:27:44.767Z,20.00
2018-02-15T21:30:10.943Z,20.87
2018-02-15T21:32:37.108Z,17.87
2018-02-15T21:35:03.304Z,32.37
2018-02-15T21:37:29.489Z,25.33
2018-02-15T21:39:56.154Z,25.33
2018-02-15T21:42:22.367Z,71.23
2018-02-15T21:44:48.509Z,32.63
2018-02-15T21:47:14.729Z,30.00
2018-02-15T21:49:40.862Z,27.73
2018-02-15T21:52:07.087Z,35.40
2018-02-15T21:54:33.265Z,34.53
2018-02-15T21:56:59.496Z,24.77
2018-02-15T21:59:25.719Z,25.20
2018-02-15T22:01:51.881Z,28.77
2018-02-15T22:04:18.031Z,27.83
2018-02-15T22:06:44.255Z,27.77
2018-02-15T22:09:10.496Z,27.57
2018-02-15T22:11:36.705Z,20.47
2018-02-15T22:14:02.864Z,22.33
2018-02-15T22:16:29.067Z,40.20
2018-02-15T22:18:55.284Z,54.87
2018-02-15T22:21:21.422Z,18.80
2018-02-15T22:23:47.599Z,21.17
2018-02-15T22:26:13.772Z,41.97
2018-02-15T22:28:40.011Z,28.87
2018-02-15T22:31:06.182Z,33.00
2018-02-15T22:33:32.349Z,31.90
2018-02-15T22:35:58.573Z,31.47
2018-02-15T22:38:24.803Z,30.53
2018-02-15T22:40:50.947Z,25.13
2018-02-15T22:43:17.167Z,28.57
2018-02-15T22:45:43.301Z,25.77
2018-02-15T22:48:09.521Z,26.13
2018-02-15T22:50:35.757Z,48.80
2018-02-15T22:53:01.928Z,25.73
2018-02-15T22:55:28.076Z,43.57
2018-02-15T22:57:54.303Z,31.10
2018-02-15T23:00:20.451Z,25.33
2018-02-15T23:02:46.624Z,26.87
2018-02-15T23:05:12.823Z,19.60
2018-02-15T23:07:39.047Z,17.13
2018-02-15T23:10:05.194Z,22.27
2018-02-15T23:12:31.435Z,19.03
2018-02-15T23:14:57.588Z,24.23
2018-02-15T23:17:23.760Z,26.50
2018-02-15T23:19:49.954Z,34.00
2018-02-15T23:22:16.176Z,37.90
2018-02-15T23:24:42.343Z,29.33
2018-02-15T23:27:08.504Z,26.87
2018-02-15T23:29:34.750Z,29.70
2018-02-15T23:32:00.908Z,36.43
2018-02-15T23:34:27.051Z,26.00
2018-02-15T23:36:53.223Z,22.53
2018-02-15T23:39:19.452Z,18.87
2018-02-15T23:41:45.655Z,30.70
2018-02-15T23:44:11.842Z,21.60
2018-02-15T23:46:37.980Z,15.23
2018-02-15T23:49:04.178Z,28.47
2018-02-15T23:51:30.381Z,21.57
2018-02-15T23:53:56.540Z,21.83
2018-02-15T23:56:22.761Z,24.30
2018-02-15T23:58:49.112Z,23.40
